sensor_id;sensor_type;location;lat;lon;timestamp;temperature;humidity
10541;DHT22;5318;50.844;4.272;2022-12-29T00:01:34;12.50;99.90
10541;DHT22;5318;50.844;4.272;2022-12-29T00:04:00;12.50;99.90
10541;DHT22;5318;50.844;4.272;2022-12-29T00:06:27;12.50;99.90
10541;DHT22;5318;50.844;4.272;2022-12-29T00:08:53;12.40;99.90
10541;DHT22;5318;50.844;4.272;2022-12-29T00:11:21;12.50;99.90
10541;DHT22;5318;50.844;4.272;2022-12-29T00:13:46;12.60;99.90
10541;DHT22;5318;50.844;4.272;2022-12-29T00:16:13;12.60;99.90
10541;DHT22;5318;50.844;4.272;2022-12-29T00:18:39;12.60;99.90
10541;DHT22;5318;50.844;4.272;2022-12-29T00:21:15;12.70;99.90
10541;DHT22;5318;50.844;4.272;2022-12-29T00:23:33;12.60;99.90
10541;DHT22;5318;50.844;4.272;2022-12-29T00:26:02;12.60;99.90
10541;DHT22;5318;50.844;4.272;2022-12-29T00:28:26;12.60;99.90
10541;DHT22;5318;50.844;4.272;2022-12-29T00:30:53;12.70;99.90
10541;DHT22;5318;50.844;4.272;2022-12-29T00:33:20;12.70;99.90
10541;DHT22;5318;50.844;4.272;2022-12-29T00:35:50;12.60;99.90
10541;DHT22;5318;50.844;4.272;2022-12-29T00:38:13;12.60;99.90
10541;DHT22;5318;50.844;4.272;2022-12-29T00:40:39;12.70;99.90
10541;DHT22;5318;50.844;4.272;2022-12-29T00:43:06;12.80;99.90
10541;DHT22;5318;50.844;4.272;2022-12-29T00:45:32;12.90;99.90
10541;DHT22;5318;50.844;4.272;2022-12-29T00:48:00;13.00;99.90
10541;DHT22;5318;50.844;4.272;2022-12-29T00:50:26;13.00;99.90
10541;DHT22;5318;50.844;4.272;2022-12-29T00:52:53;12.90;99.90
10541;DHT22;5318;50.844;4.272;2022-12-29T00:55:19;12.90;99.90
10541;DHT22;5318;50.844;4.272;2022-12-29T00:57:46;12.90;99.90
10541;DHT22;5318;50.844;4.272;2022-12-29T01:00:12;12.90;99.90
10541;DHT22;5318;50.844;4.272;2022-12-29T01:02:39;12.90;99.90
10541;DHT22;5318;50.844;4.272;2022-12-29T01:05:05;12.90;99.90
10541;DHT22;5318;50.844;4.272;2022-12-29T01:07:32;13.00;99.90
10541;DHT22;5318;50.844;4.272;2022-12-29T01:09:59;13.00;99.90
10541;DHT22;5318;50.844;4.272;2022-12-29T01:12:25;12.90;99.90
10541;DHT22;5318;50.844;4.272;2022-12-29T01:14:52;12.90;99.90
10541;DHT22;5318;50.844;4.272;2022-12-29T01:17:18;13.00;99.90
10541;DHT22;5318;50.844;4.272;2022-12-29T01:19:45;13.00;99.90
10541;DHT22;5318;50.844;4.272;2022-12-29T01:22:11;12.80;99.90
10541;DHT22;5318;50.844;4.272;2022-12-29T01:24:38;12.70;99.90
10541;DHT22;5318;50.844;4.272;2022-12-29T01:27:04;12.70;99.90
10541;DHT22;5318;50.844;4.272;2022-12-29T01:29:31;12.60;99.90
10541;DHT22;5318;50.844;4.272;2022-12-29T01:31:57;12.50;99.90
10541;DHT22;5318;50.844;4.272;2022-12-29T01:34:24;12.40;99.90
10541;DHT22;5318;50.844;4.272;2022-12-29T01:36:51;12.40;99.90
10541;DHT22;5318;50.844;4.272;2022-12-29T01:39:18;12.40;99.90
10541;DHT22;5318;50.844;4.272;2022-12-29T01:41:44;12.30;99.90
10541;DHT22;5318;50.844;4.272;2022-12-29T01:44:49;12.20;99.90
10541;DHT22;5318;50.844;4.272;2022-12-29T01:47:15;12.20;99.90
10541;DHT22;5318;50.844;4.272;2022-12-29T01:49:41;12.10;99.90
10541;DHT22;5318;50.844;4.272;2022-12-29T01:52:08;12.10;99.90
10541;DHT22;5318;50.844;4.272;2022-12-29T01:54:36;12.30;99.90
10541;DHT22;5318;50.844;4.272;2022-12-29T01:57:05;12.30;99.90
10541;DHT22;5318;50.844;4.272;2022-12-29T01:59:32;12.20;99.90
10541;DHT22;5318;50.844;4.272;2022-12-29T02:01:58;12.20;99.90
10541;DHT22;5318;50.844;4.272;2022-12-29T02:04:24;12.30;99.90
10541;DHT22;5318;50.844;4.272;2022-12-29T02:06:55;12.30;99.90
10541;DHT22;5318;50.844;4.272;2022-12-29T02:09:21;12.30;99.90
10541;DHT22;5318;50.844;4.272;2022-12-29T02:11:47;12.20;99.90
10541;DHT22;5318;50.844;4.272;2022-12-29T02:14:14;12.20;99.90
10541;DHT22;5318;50.844;4.272;2022-12-29T02:22:34;11.90;99.90
10541;DHT22;5318;50.844;4.272;2022-12-29T02:35:56;11.40;99.90
10541;DHT22;5318;50.844;4.272;2022-12-29T02:38:25;11.40;99.90
10541;DHT22;5318;50.844;4.272;2022-12-29T02:40:58;11.30;99.90
10541;DHT22;5318;50.844;4.272;2022-12-29T02:43:24;11.30;99.90
10541;DHT22;5318;50.844;4.272;2022-12-29T02:45:59;11.40;99.90
10541;DHT22;5318;50.844;4.272;2022-12-29T02:48:32;11.40;99.90
10541;DHT22;5318;50.844;4.272;2022-12-29T02:51:04;11.50;99.90
10541;DHT22;5318;50.844;4.272;2022-12-29T02:53:28;11.40;99.90
10541;DHT22;5318;50.844;4.272;2022-12-29T02:55:54;11.40;99.90
10541;DHT22;5318;50.844;4.272;2022-12-29T02:58:21;11.50;99.90
10541;DHT22;5318;50.844;4.272;2022-12-29T03:06:05;11.30;99.90
10541;DHT22;5318;50.844;4.272;2022-12-29T03:11:05;11.10;99.90
10541;DHT22;5318;50.844;4.272;2022-12-29T03:18:37;10.90;99.90
10541;DHT22;5318;50.844;4.272;2022-12-29T03:21:02;10.90;99.90
10541;DHT22;5318;50.844;4.272;2022-12-29T03:23:27;11.00;99.90
10541;DHT22;5318;50.844;4.272;2022-12-29T03:25:55;11.00;99.90
10541;DHT22;5318;50.844;4.272;2022-12-29T03:28:27;11.10;99.90
10541;DHT22;5318;50.844;4.272;2022-12-29T03:30:52;11.10;99.90
10541;DHT22;5318;50.844;4.272;2022-12-29T03:33:21;11.10;99.90
10541;DHT22;5318;50.844;4.272;2022-12-29T03:35:45;11.20;99.90
10541;DHT22;5318;50.844;4.272;2022-12-29T03:38:33;11.20;99.90
10541;DHT22;5318;50.844;4.272;2022-12-29T03:40:57;11.10;99.90
10541;DHT22;5318;50.844;4.272;2022-12-29T03:43:24;11.30;99.90
10541;DHT22;5318;50.844;4.272;2022-12-29T03:45:50;11.30;99.90
10541;DHT22;5318;50.844;4.272;2022-12-29T03:48:17;11.30;99.90
10541;DHT22;5318;50.844;4.272;2022-12-29T03:50:44;11.20;99.90
10541;DHT22;5318;50.844;4.272;2022-12-29T03:53:10;11.20;99.90
10541;DHT22;5318;50.844;4.272;2022-12-29T03:55:37;11.40;99.90
10541;DHT22;5318;50.844;4.272;2022-12-29T03:58:04;11.50;99.90
10541;DHT22;5318;50.844;4.272;2022-12-29T04:00:30;11.50;99.90
10541;DHT22;5318;50.844;4.272;2022-12-29T04:02:57;11.40;99.90
10541;DHT22;5318;50.844;4.272;2022-12-29T04:05:24;11.40;99.90
10541;DHT22;5318;50.844;4.272;2022-12-29T04:07:50;11.20;99.90
10541;DHT22;5318;50.844;4.272;2022-12-29T04:10:17;11.20;99.90
10541;DHT22;5318;50.844;4.272;2022-12-29T04:12:43;11.40;99.90
10541;DHT22;5318;50.844;4.272;2022-12-29T04:15:10;11.30;99.90
10541;DHT22;5318;50.844;4.272;2022-12-29T04:17:36;11.30;99.90
10541;DHT22;5318;50.844;4.272;2022-12-29T04:20:03;11.20;99.90
10541;DHT22;5318;50.844;4.272;2022-12-29T04:22:30;10.90;99.90
10541;DHT22;5318;50.844;4.272;2022-12-29T04:24:57;10.90;99.90
10541;DHT22;5318;50.844;4.272;2022-12-29T04:27:23;11.00;99.90
10541;DHT22;5318;50.844;4.272;2022-12-29T04:29:50;11.00;99.90
10541;DHT22;5318;50.844;4.272;2022-12-29T04:32:16;10.90;99.90
10541;DHT22;5318;50.844;4.272;2022-12-29T04:34:43;10.90;99.90
10541;DHT22;5318;50.844;4.272;2022-12-29T04:37:09;11.00;99.90
10541;DHT22;5318;50.844;4.272;2022-12-29T04:39:36;11.10;99.90
10541;DHT22;5318;50.844;4.272;2022-12-29T04:42:03;11.20;99.90
10541;DHT22;5318;50.844;4.272;2022-12-29T04:44:29;11.30;99.90
10541;DHT22;5318;50.844;4.272;2022-12-29T04:46:56;11.20;99.90
10541;DHT22;5318;50.844;4.272;2022-12-29T04:49:23;11.00;99.90
10541;DHT22;5318;50.844;4.272;2022-12-29T04:51:49;11.00;99.90
10541;DHT22;5318;50.844;4.272;2022-12-29T04:54:16;11.00;99.90
10541;DHT22;5318;50.844;4.272;2022-12-29T04:56:43;11.00;99.90
10541;DHT22;5318;50.844;4.272;2022-12-29T04:59:09;11.10;99.90
10541;DHT22;5318;50.844;4.272;2022-12-29T05:01:36;11.00;99.90
10541;DHT22;5318;50.844;4.272;2022-12-29T05:04:02;11.10;99.90
10541;DHT22;5318;50.844;4.272;2022-12-29T05:06:29;11.10;99.90
10541;DHT22;5318;50.844;4.272;2022-12-29T05:08:55;11.20;99.90
10541;DHT22;5318;50.844;4.272;2022-12-29T05:11:22;11.30;99.90
10541;DHT22;5318;50.844;4.272;2022-12-29T05:13:48;11.40;99.90
10541;DHT22;5318;50.844;4.272;2022-12-29T05:16:15;11.50;99.90
10541;DHT22;5318;50.844;4.272;2022-12-29T05:18:42;11.40;99.90
10541;DHT22;5318;50.844;4.272;2022-12-29T05:21:08;11.40;99.90
10541;DHT22;5318;50.844;4.272;2022-12-29T05:23:35;11.30;99.90
10541;DHT22;5318;50.844;4.272;2022-12-29T05:26:01;11.40;99.90
10541;DHT22;5318;50.844;4.272;2022-12-29T05:28:28;11.50;99.90
10541;DHT22;5318;50.844;4.272;2022-12-29T05:30:54;11.50;99.90
10541;DHT22;5318;50.844;4.272;2022-12-29T05:33:21;11.40;99.90
10541;DHT22;5318;50.844;4.272;2022-12-29T05:35:47;11.40;99.90
10541;DHT22;5318;50.844;4.272;2022-12-29T05:38:14;11.50;99.90
10541;DHT22;5318;50.844;4.272;2022-12-29T05:40:40;11.40;99.90
10541;DHT22;5318;50.844;4.272;2022-12-29T05:43:07;11.30;99.90
10541;DHT22;5318;50.844;4.272;2022-12-29T05:45:35;11.40;99.90
10541;DHT22;5318;50.844;4.272;2022-12-29T05:48:01;11.40;99.90
10541;DHT22;5318;50.844;4.272;2022-12-29T05:50:27;11.40;99.90
10541;DHT22;5318;50.844;4.272;2022-12-29T05:52:54;11.50;99.90
10541;DHT22;5318;50.844;4.272;2022-12-29T05:55:21;11.40;99.90
10541;DHT22;5318;50.844;4.272;2022-12-29T05:57:47;11.30;99.90
10541;DHT22;5318;50.844;4.272;2022-12-29T06:00:14;11.30;99.90
10541;DHT22;5318;50.844;4.272;2022-12-29T06:02:41;11.30;99.90
10541;DHT22;5318;50.844;4.272;2022-12-29T06:05:08;11.30;99.90
10541;DHT22;5318;50.844;4.272;2022-12-29T06:07:34;11.30;99.90
10541;DHT22;5318;50.844;4.272;2022-12-29T06:10:01;11.30;99.90
10541;DHT22;5318;50.844;4.272;2022-12-29T06:12:28;11.20;99.90
10541;DHT22;5318;50.844;4.272;2022-12-29T06:14:55;11.10;99.90
10541;DHT22;5318;50.844;4.272;2022-12-29T06:17:21;11.10;99.90
10541;DHT22;5318;50.844;4.272;2022-12-29T06:19:48;11.30;99.90
10541;DHT22;5318;50.844;4.272;2022-12-29T06:22:14;11.20;99.90
10541;DHT22;5318;50.844;4.272;2022-12-29T06:24:41;11.10;99.90
10541;DHT22;5318;50.844;4.272;2022-12-29T06:27:07;11.10;99.90
10541;DHT22;5318;50.844;4.272;2022-12-29T06:29:34;11.10;99.90
10541;DHT22;5318;50.844;4.272;2022-12-29T06:32:00;11.20;99.90
10541;DHT22;5318;50.844;4.272;2022-12-29T06:34:27;11.30;99.90
10541;DHT22;5318;50.844;4.272;2022-12-29T06:36:54;11.40;99.90
10541;DHT22;5318;50.844;4.272;2022-12-29T06:39:21;11.40;99.90
10541;DHT22;5318;50.844;4.272;2022-12-29T06:41:47;11.40;99.90
10541;DHT22;5318;50.844;4.272;2022-12-29T06:44:14;11.40;99.90
10541;DHT22;5318;50.844;4.272;2022-12-29T06:46:41;11.50;99.90
10541;DHT22;5318;50.844;4.272;2022-12-29T06:49:07;11.40;99.90
10541;DHT22;5318;50.844;4.272;2022-12-29T06:51:34;11.50;99.90
10541;DHT22;5318;50.844;4.272;2022-12-29T06:54:01;11.50;99.90
10541;DHT22;5318;50.844;4.272;2022-12-29T06:56:28;11.70;99.90
10541;DHT22;5318;50.844;4.272;2022-12-29T06:58:54;11.70;99.90
10541;DHT22;5318;50.844;4.272;2022-12-29T07:01:21;11.60;99.90
10541;DHT22;5318;50.844;4.272;2022-12-29T07:03:47;11.60;99.90
10541;DHT22;5318;50.844;4.272;2022-12-29T07:06:14;11.70;99.90
10541;DHT22;5318;50.844;4.272;2022-12-29T07:08:40;11.60;99.90
10541;DHT22;5318;50.844;4.272;2022-12-29T07:11:07;11.50;99.90
10541;DHT22;5318;50.844;4.272;2022-12-29T07:13:33;11.40;99.90
10541;DHT22;5318;50.844;4.272;2022-12-29T07:16:04;11.50;99.90
10541;DHT22;5318;50.844;4.272;2022-12-29T07:18:26;11.50;99.90
10541;DHT22;5318;50.844;4.272;2022-12-29T07:20:53;11.50;99.90
10541;DHT22;5318;50.844;4.272;2022-12-29T07:23:20;11.50;99.90
10541;DHT22;5318;50.844;4.272;2022-12-29T07:25:46;11.60;99.90
10541;DHT22;5318;50.844;4.272;2022-12-29T07:28:13;11.60;99.90
10541;DHT22;5318;50.844;4.272;2022-12-29T07:30:40;11.70;99.90
10541;DHT22;5318;50.844;4.272;2022-12-29T07:33:07;11.70;99.90
10541;DHT22;5318;50.844;4.272;2022-12-29T07:35:33;11.70;99.90
10541;DHT22;5318;50.844;4.272;2022-12-29T07:38:00;11.70;99.90
10541;DHT22;5318;50.844;4.272;2022-12-29T07:40:26;11.70;99.90
10541;DHT22;5318;50.844;4.272;2022-12-29T07:42:53;11.70;99.90
10541;DHT22;5318;50.844;4.272;2022-12-29T07:45:19;11.70;99.90
10541;DHT22;5318;50.844;4.272;2022-12-29T07:47:49;11.80;99.90
10541;DHT22;5318;50.844;4.272;2022-12-29T07:50:16;11.70;99.90
10541;DHT22;5318;50.844;4.272;2022-12-29T07:52:42;11.70;99.90
10541;DHT22;5318;50.844;4.272;2022-12-29T07:55:09;11.70;99.90
10541;DHT22;5318;50.844;4.272;2022-12-29T07:57:35;11.70;99.90
10541;DHT22;5318;50.844;4.272;2022-12-29T08:00:02;11.60;99.90
10541;DHT22;5318;50.844;4.272;2022-12-29T08:02:29;11.60;99.90
10541;DHT22;5318;50.844;4.272;2022-12-29T08:04:56;11.50;99.90
10541;DHT22;5318;50.844;4.272;2022-12-29T08:07:22;11.50;99.90
10541;DHT22;5318;50.844;4.272;2022-12-29T08:09:49;11.60;99.90
10541;DHT22;5318;50.844;4.272;2022-12-29T08:12:15;11.60;99.90
10541;DHT22;5318;50.844;4.272;2022-12-29T08:14:42;11.70;99.90
10541;DHT22;5318;50.844;4.272;2022-12-29T08:17:09;11.60;99.90
10541;DHT22;5318;50.844;4.272;2022-12-29T08:19:35;11.60;99.90
10541;DHT22;5318;50.844;4.272;2022-12-29T08:22:02;11.80;99.90
10541;DHT22;5318;50.844;4.272;2022-12-29T08:24:28;11.70;99.90
10541;DHT22;5318;50.844;4.272;2022-12-29T08:26:55;11.70;99.90
10541;DHT22;5318;50.844;4.272;2022-12-29T08:29:22;11.60;99.90
10541;DHT22;5318;50.844;4.272;2022-12-29T08:31:49;11.60;99.90
10541;DHT22;5318;50.844;4.272;2022-12-29T08:34:15;11.60;99.90
10541;DHT22;5318;50.844;4.272;2022-12-29T08:36:42;11.60;99.90
10541;DHT22;5318;50.844;4.272;2022-12-29T08:39:08;11.50;99.90
10541;DHT22;5318;50.844;4.272;2022-12-29T08:41:35;11.60;99.90
10541;DHT22;5318;50.844;4.272;2022-12-29T08:44:01;11.60;99.90
10541;DHT22;5318;50.844;4.272;2022-12-29T08:46:28;11.60;99.90
10541;DHT22;5318;50.844;4.272;2022-12-29T08:48:54;11.60;99.90
10541;DHT22;5318;50.844;4.272;2022-12-29T08:51:21;11.70;99.90
10541;DHT22;5318;50.844;4.272;2022-12-29T08:53:47;11.80;99.90
10541;DHT22;5318;50.844;4.272;2022-12-29T08:56:15;11.70;99.90
10541;DHT22;5318;50.844;4.272;2022-12-29T08:58:41;11.70;99.90
10541;DHT22;5318;50.844;4.272;2022-12-29T09:01:08;11.70;99.90
10541;DHT22;5318;50.844;4.272;2022-12-29T09:03:34;11.60;99.90
10541;DHT22;5318;50.844;4.272;2022-12-29T09:06:01;11.60;99.90
10541;DHT22;5318;50.844;4.272;2022-12-29T09:08:27;11.50;99.90
10541;DHT22;5318;50.844;4.272;2022-12-29T09:10:54;11.60;99.90
10541;DHT22;5318;50.844;4.272;2022-12-29T09:13:21;11.60;99.90
10541;DHT22;5318;50.844;4.272;2022-12-29T09:15:47;11.70;99.90
10541;DHT22;5318;50.844;4.272;2022-12-29T09:18:14;11.80;99.90
10541;DHT22;5318;50.844;4.272;2022-12-29T09:20:41;11.70;99.90
10541;DHT22;5318;50.844;4.272;2022-12-29T09:23:07;11.70;99.90
10541;DHT22;5318;50.844;4.272;2022-12-29T09:25:34;11.70;99.90
10541;DHT22;5318;50.844;4.272;2022-12-29T09:28:01;11.80;99.90
10541;DHT22;5318;50.844;4.272;2022-12-29T09:30:27;11.70;99.90
10541;DHT22;5318;50.844;4.272;2022-12-29T09:32:54;11.60;99.90
10541;DHT22;5318;50.844;4.272;2022-12-29T09:35:20;11.50;99.90
10541;DHT22;5318;50.844;4.272;2022-12-29T09:37:47;11.50;99.90
10541;DHT22;5318;50.844;4.272;2022-12-29T09:40:19;11.60;99.90
10541;DHT22;5318;50.844;4.272;2022-12-29T09:42:53;11.60;99.90
10541;DHT22;5318;50.844;4.272;2022-12-29T09:47:57;11.60;99.90
10541;DHT22;5318;50.844;4.272;2022-12-29T09:50:28;11.70;99.90
10541;DHT22;5318;50.844;4.272;2022-12-29T09:53:01;11.70;99.90
10541;DHT22;5318;50.844;4.272;2022-12-29T09:55:34;11.70;99.90
10541;DHT22;5318;50.844;4.272;2022-12-29T09:57:58;11.80;99.90
10541;DHT22;5318;50.844;4.272;2022-12-29T10:00:38;11.90;99.90
10541;DHT22;5318;50.844;4.272;2022-12-29T10:03:06;12.10;99.90
10541;DHT22;5318;50.844;4.272;2022-12-29T10:06:20;12.20;99.90
10541;DHT22;5318;50.844;4.272;2022-12-29T10:08:11;12.20;99.90
10541;DHT22;5318;50.844;4.272;2022-12-29T10:10:52;12.20;99.90
10541;DHT22;5318;50.844;4.272;2022-12-29T10:23:25;12.30;99.90
10541;DHT22;5318;50.844;4.272;2022-12-29T10:25:48;12.40;99.90
10541;DHT22;5318;50.844;4.272;2022-12-29T10:28:21;12.40;99.90
10541;DHT22;5318;50.844;4.272;2022-12-29T10:30:50;12.50;99.90
10541;DHT22;5318;50.844;4.272;2022-12-29T10:33:24;12.50;99.90
10541;DHT22;5318;50.844;4.272;2022-12-29T10:35:47;12.50;99.90
10541;DHT22;5318;50.844;4.272;2022-12-29T10:38:26;12.50;99.90
10541;DHT22;5318;50.844;4.272;2022-12-29T10:43:37;12.70;99.90
10541;DHT22;5318;50.844;4.272;2022-12-29T10:46:11;12.70;99.90
10541;DHT22;5318;50.844;4.272;2022-12-29T10:48:36;12.70;99.90
10541;DHT22;5318;50.844;4.272;2022-12-29T10:51:04;12.80;99.90
10541;DHT22;5318;50.844;4.272;2022-12-29T10:53:50;12.90;99.90
10541;DHT22;5318;50.844;4.272;2022-12-29T10:55:59;13.10;99.90
10541;DHT22;5318;50.844;4.272;2022-12-29T10:58:25;13.30;99.90
10541;DHT22;5318;50.844;4.272;2022-12-29T11:00:52;13.40;99.90
10541;DHT22;5318;50.844;4.272;2022-12-29T11:03:36;13.40;99.90
10541;DHT22;5318;50.844;4.272;2022-12-29T11:06:12;13.50;99.90
10541;DHT22;5318;50.844;4.272;2022-12-29T11:08:39;13.60;99.90
10541;DHT22;5318;50.844;4.272;2022-12-29T11:11:06;13.60;99.90
10541;DHT22;5318;50.844;4.272;2022-12-29T11:13:33;13.90;99.90
10541;DHT22;5318;50.844;4.272;2022-12-29T11:15:58;13.90;99.90
10541;DHT22;5318;50.844;4.272;2022-12-29T11:18:36;14.20;99.90
10541;DHT22;5318;50.844;4.272;2022-12-29T11:21:01;14.40;99.90
10541;DHT22;5318;50.844;4.272;2022-12-29T11:23:37;14.60;99.90
10541;DHT22;5318;50.844;4.272;2022-12-29T11:26:21;14.60;99.90
10541;DHT22;5318;50.844;4.272;2022-12-29T11:28:46;14.50;99.90
10541;DHT22;5318;50.844;4.272;2022-12-29T11:31:10;14.10;99.90
10541;DHT22;5318;50.844;4.272;2022-12-29T11:33:37;13.80;99.90
10541;DHT22;5318;50.844;4.272;2022-12-29T11:36:08;13.70;99.90
10541;DHT22;5318;50.844;4.272;2022-12-29T11:38:36;13.60;99.90
10541;DHT22;5318;50.844;4.272;2022-12-29T11:41:02;13.60;99.90
10541;DHT22;5318;50.844;4.272;2022-12-29T11:43:38;13.60;99.90
10541;DHT22;5318;50.844;4.272;2022-12-29T11:46:01;13.50;99.90
10541;DHT22;5318;50.844;4.272;2022-12-29T11:48:29;13.30;99.90
10541;DHT22;5318;50.844;4.272;2022-12-29T11:50:55;13.20;99.90
10541;DHT22;5318;50.844;4.272;2022-12-29T11:53:27;13.20;99.90
10541;DHT22;5318;50.844;4.272;2022-12-29T11:56:00;12.90;99.90
10541;DHT22;5318;50.844;4.272;2022-12-29T11:58:33;12.90;99.90
10541;DHT22;5318;50.844;4.272;2022-12-29T12:00:56;12.80;99.90
10541;DHT22;5318;50.844;4.272;2022-12-29T12:03:24;12.70;99.90
10541;DHT22;5318;50.844;4.272;2022-12-29T12:05:57;12.70;99.90
10541;DHT22;5318;50.844;4.272;2022-12-29T12:11:29;12.60;99.90
10541;DHT22;5318;50.844;4.272;2022-12-29T12:14:09;12.60;99.90
10541;DHT22;5318;50.844;4.272;2022-12-29T12:16:50;12.50;99.90
10541;DHT22;5318;50.844;4.272;2022-12-29T12:22:26;12.50;99.90
10541;DHT22;5318;50.844;4.272;2022-12-29T12:24:59;12.40;99.90
10541;DHT22;5318;50.844;4.272;2022-12-29T12:27:33;12.30;99.90
10541;DHT22;5318;50.844;4.272;2022-12-29T12:30:02;12.20;99.90
10541;DHT22;5318;50.844;4.272;2022-12-29T12:35:16;12.50;99.90
10541;DHT22;5318;50.844;4.272;2022-12-29T12:37:51;12.90;99.90
10541;DHT22;5318;50.844;4.272;2022-12-29T12:45:51;13.00;99.90
10541;DHT22;5318;50.844;4.272;2022-12-29T12:51:17;12.90;99.90
10541;DHT22;5318;50.844;4.272;2022-12-29T12:54:36;12.90;99.90
10541;DHT22;5318;50.844;4.272;2022-12-29T12:56:38;12.80;99.90
10541;DHT22;5318;50.844;4.272;2022-12-29T12:59:06;12.80;99.90
10541;DHT22;5318;50.844;4.272;2022-12-29T13:01:44;12.80;99.90
10541;DHT22;5318;50.844;4.272;2022-12-29T13:04:22;12.70;99.90
10541;DHT22;5318;50.844;4.272;2022-12-29T13:06:59;12.60;99.90
10541;DHT22;5318;50.844;4.272;2022-12-29T13:10:00;12.60;99.90
10541;DHT22;5318;50.844;4.272;2022-12-29T13:12:36;12.60;99.90
10541;DHT22;5318;50.844;4.272;2022-12-29T13:15:13;12.50;99.90
10541;DHT22;5318;50.844;4.272;2022-12-29T13:17:46;12.40;99.90
10541;DHT22;5318;50.844;4.272;2022-12-29T13:20:32;12.50;99.90
10541;DHT22;5318;50.844;4.272;2022-12-29T13:28:16;12.60;99.90
10541;DHT22;5318;50.844;4.272;2022-12-29T13:31:02;12.60;99.90
10541;DHT22;5318;50.844;4.272;2022-12-29T13:33:53;12.40;99.90
10541;DHT22;5318;50.844;4.272;2022-12-29T13:39:47;12.30;99.90
10541;DHT22;5318;50.844;4.272;2022-12-29T13:41:29;12.20;99.90
10541;DHT22;5318;50.844;4.272;2022-12-29T13:43:54;12.20;99.90
10541;DHT22;5318;50.844;4.272;2022-12-29T13:46:24;12.30;99.90
10541;DHT22;5318;50.844;4.272;2022-12-29T13:49:00;12.40;99.90
10541;DHT22;5318;50.844;4.272;2022-12-29T13:51:25;12.50;99.90
10541;DHT22;5318;50.844;4.272;2022-12-29T13:54:03;12.50;99.90
10541;DHT22;5318;50.844;4.272;2022-12-29T13:56:32;12.50;99.90
10541;DHT22;5318;50.844;4.272;2022-12-29T13:59:05;12.40;99.90
10541;DHT22;5318;50.844;4.272;2022-12-29T14:01:31;12.30;99.90
10541;DHT22;5318;50.844;4.272;2022-12-29T14:03:57;12.30;99.90
10541;DHT22;5318;50.844;4.272;2022-12-29T14:06:29;12.30;99.90
10541;DHT22;5318;50.844;4.272;2022-12-29T14:09:05;12.30;99.90
10541;DHT22;5318;50.844;4.272;2022-12-29T14:11:35;12.40;99.90
10541;DHT22;5318;50.844;4.272;2022-12-29T14:14:24;12.40;99.90
10541;DHT22;5318;50.844;4.272;2022-12-29T14:16:49;12.40;99.90
10541;DHT22;5318;50.844;4.272;2022-12-29T14:21:56;12.30;99.90
10541;DHT22;5318;50.844;4.272;2022-12-29T14:26:54;12.20;99.90
10541;DHT22;5318;50.844;4.272;2022-12-29T14:31:51;12.40;99.90
10541;DHT22;5318;50.844;4.272;2022-12-29T14:44:53;11.50;99.90
10541;DHT22;5318;50.844;4.272;2022-12-29T14:47:32;11.40;99.90
10541;DHT22;5318;50.844;4.272;2022-12-29T14:50:22;11.30;99.90
10541;DHT22;5318;50.844;4.272;2022-12-29T14:57:44;11.00;99.90
10541;DHT22;5318;50.844;4.272;2022-12-29T15:00:35;10.90;99.90
10541;DHT22;5318;50.844;4.272;2022-12-29T15:03:05;10.70;99.90
10541;DHT22;5318;50.844;4.272;2022-12-29T15:08:13;10.30;99.90
10541;DHT22;5318;50.844;4.272;2022-12-29T15:10:51;10.20;99.90
10541;DHT22;5318;50.844;4.272;2022-12-29T15:13:21;10.10;99.90
10541;DHT22;5318;50.844;4.272;2022-12-29T15:15:45;10.00;99.90
10541;DHT22;5318;50.844;4.272;2022-12-29T15:18:15;10.20;99.90
10541;DHT22;5318;50.844;4.272;2022-12-29T15:20:40;10.20;99.90
10541;DHT22;5318;50.844;4.272;2022-12-29T15:23:10;10.20;99.90
10541;DHT22;5318;50.844;4.272;2022-12-29T15:25:36;10.20;99.90
10541;DHT22;5318;50.844;4.272;2022-12-29T15:28:04;10.00;99.90
10541;DHT22;5318;50.844;4.272;2022-12-29T15:30:30;10.00;99.90
10541;DHT22;5318;50.844;4.272;2022-12-29T15:32:57;10.00;99.90
10541;DHT22;5318;50.844;4.272;2022-12-29T15:35:30;10.10;99.90
10541;DHT22;5318;50.844;4.272;2022-12-29T15:37:56;10.10;99.90
10541;DHT22;5318;50.844;4.272;2022-12-29T15:40:27;10.10;99.90
10541;DHT22;5318;50.844;4.272;2022-12-29T15:43:21;10.20;99.90
10541;DHT22;5318;50.844;4.272;2022-12-29T15:45:43;10.10;99.90
10541;DHT22;5318;50.844;4.272;2022-12-29T15:48:17;10.00;99.90
10541;DHT22;5318;50.844;4.272;2022-12-29T15:50:43;9.80;99.90
10541;DHT22;5318;50.844;4.272;2022-12-29T15:53:10;9.80;99.90
10541;DHT22;5318;50.844;4.272;2022-12-29T15:55:37;9.90;99.90
10541;DHT22;5318;50.844;4.272;2022-12-29T15:58:15;9.90;99.90
10541;DHT22;5318;50.844;4.272;2022-12-29T16:00:35;9.90;99.90
10541;DHT22;5318;50.844;4.272;2022-12-29T16:02:59;9.70;99.90
10541;DHT22;5318;50.844;4.272;2022-12-29T16:05:31;9.70;99.90
10541;DHT22;5318;50.844;4.272;2022-12-29T16:07:56;9.90;99.90
10541;DHT22;5318;50.844;4.272;2022-12-29T16:10:22;9.90;99.90
10541;DHT22;5318;50.844;4.272;2022-12-29T16:12:47;10.00;99.90
10541;DHT22;5318;50.844;4.272;2022-12-29T16:15:14;10.10;99.90
10541;DHT22;5318;50.844;4.272;2022-12-29T16:17:46;10.20;99.90
10541;DHT22;5318;50.844;4.272;2022-12-29T16:20:21;9.90;99.90
10541;DHT22;5318;50.844;4.272;2022-12-29T16:22:49;9.90;99.90
10541;DHT22;5318;50.844;4.272;2022-12-29T16:25:31;10.00;99.90
10541;DHT22;5318;50.844;4.272;2022-12-29T16:28:00;10.10;99.90
10541;DHT22;5318;50.844;4.272;2022-12-29T16:30:25;10.20;99.90
10541;DHT22;5318;50.844;4.272;2022-12-29T16:32:52;10.20;99.90
10541;DHT22;5318;50.844;4.272;2022-12-29T16:35:20;10.10;99.90
10541;DHT22;5318;50.844;4.272;2022-12-29T16:37:46;10.00;99.90
10541;DHT22;5318;50.844;4.272;2022-12-29T16:40:29;10.00;99.90
10541;DHT22;5318;50.844;4.272;2022-12-29T16:42:55;10.00;99.90
10541;DHT22;5318;50.844;4.272;2022-12-29T16:50:36;9.80;99.90
10541;DHT22;5318;50.844;4.272;2022-12-29T16:52:58;9.90;99.90
10541;DHT22;5318;50.844;4.272;2022-12-29T16:55:25;9.90;99.90
10541;DHT22;5318;50.844;4.272;2022-12-29T16:57:52;9.90;99.90
10541;DHT22;5318;50.844;4.272;2022-12-29T17:00:21;9.80;99.90
10541;DHT22;5318;50.844;4.272;2022-12-29T17:02:51;9.80;99.90
10541;DHT22;5318;50.844;4.272;2022-12-29T17:05:14;9.70;99.90
10541;DHT22;5318;50.844;4.272;2022-12-29T17:07:40;9.70;99.90
10541;DHT22;5318;50.844;4.272;2022-12-29T17:10:07;9.80;99.90
10541;DHT22;5318;50.844;4.272;2022-12-29T17:12:34;9.70;99.90
10541;DHT22;5318;50.844;4.272;2022-12-29T17:15:02;9.70;99.90
10541;DHT22;5318;50.844;4.272;2022-12-29T17:20:02;9.60;99.90
10541;DHT22;5318;50.844;4.272;2022-12-29T17:22:25;9.50;99.90
10541;DHT22;5318;50.844;4.272;2022-12-29T17:24:52;9.40;99.90
10541;DHT22;5318;50.844;4.272;2022-12-29T17:29:52;9.50;99.90
10541;DHT22;5318;50.844;4.272;2022-12-29T17:32:18;9.60;99.90
10541;DHT22;5318;50.844;4.272;2022-12-29T17:34:44;9.70;99.90
10541;DHT22;5318;50.844;4.272;2022-12-29T17:39:49;9.60;99.90
10541;DHT22;5318;50.844;4.272;2022-12-29T17:42:17;9.50;99.90
10541;DHT22;5318;50.844;4.272;2022-12-29T17:44:42;9.40;99.90